createdAt,value
2022-07-31T00:00:18.015Z,-26.2
2022-07-31T00:02:19.574Z,-26.1
2022-07-31T00:04:21.367Z,-26.4
2022-07-31T00:06:22.444Z,-26
2022-07-31T00:08:23.374Z,-26.3
2022-07-31T00:10:24.916Z,-26.2
2022-07-31T00:12:26.693Z,-26
2022-07-31T00:16:29.648Z,-26.3
2022-07-31T00:18:31.168Z,-26
2022-07-31T00:22:34.260Z,-26.1
2022-07-31T00:28:37.339Z,-26
2022-07-31T00:30:38.558Z,-26.1
2022-07-31T00:32:39.830Z,-26
2022-07-31T00:34:41.006Z,-26.2
2022-07-31T00:36:41.914Z,-26.2
2022-07-31T00:38:43.218Z,-25.9
2022-07-31T00:42:46.352Z,-26.1
2022-07-31T00:44:47.744Z,-26
2022-07-31T00:46:48.581Z,-26
2022-07-31T00:48:49.707Z,-26.3
2022-07-31T00:50:51.194Z,-26.2
2022-07-31T00:52:53.133Z,-26
2022-07-31T00:54:54.257Z,-26.6
2022-07-31T00:56:55.985Z,-26.2
2022-07-31T00:58:57.364Z,-26.2
2022-07-31T01:00:58.746Z,-26.1
2022-07-31T01:05:01.129Z,-26.1
2022-07-31T01:07:03.163Z,-26
2022-07-31T01:09:04.457Z,-26.3
2022-07-31T01:11:06.129Z,-26
2022-07-31T01:13:07.743Z,-26
2022-07-31T01:15:08.868Z,-25.9
2022-07-31T01:17:10.022Z,-26.3
2022-07-31T01:19:11.520Z,-26
2022-07-31T01:21:13.223Z,-26
2022-07-31T01:27:17.687Z,-26.1
2022-07-31T01:29:18.982Z,-25.9
2022-07-31T01:31:26.450Z,-26.1
2022-07-31T01:33:21.529Z,-26
2022-07-31T01:35:23.242Z,-26
2022-07-31T01:37:24.435Z,-26.1
2022-07-31T01:41:27.522Z,-26
2022-07-31T01:43:29.412Z,-26.1
2022-07-31T01:45:31.094Z,-26.2
2022-07-31T01:47:32.900Z,-26.2
2022-07-31T01:51:35.489Z,-26
2022-07-31T01:53:37.062Z,-25.9
2022-07-31T01:57:39.862Z,-25.9
2022-07-31T01:59:42.466Z,-26
2022-07-31T02:01:42.908Z,-26.3
2022-07-31T02:03:45.362Z,-26
2022-07-31T02:07:46.690Z,-26
2022-07-31T02:09:52.340Z,-26.1
2022-07-31T02:11:53.641Z,-26
2022-07-31T02:13:50.339Z,-26.2
2022-07-31T02:17:52.930Z,-26.2
2022-07-31T02:19:59.666Z,-26.2
2022-07-31T02:21:55.492Z,-26.1
2022-07-31T02:23:57.039Z,-26
2022-07-31T02:25:58.501Z,-26.2
2022-07-31T02:27:59.717Z,-26.1
2022-07-31T02:30:01.397Z,-26
2022-07-31T02:32:09.856Z,-26.1
2022-07-31T02:36:05.401Z,-26
2022-07-31T02:40:08.322Z,-26
2022-07-31T02:42:09.362Z,-25.9
2022-07-31T02:44:10.974Z,-26.1
2022-07-31T02:46:11.979Z,-26.1
2022-07-31T02:52:16.164Z,-26
2022-07-31T02:54:17.262Z,-25.9
2022-07-31T02:56:18.532Z,-25.9
2022-07-31T02:58:20.464Z,-26.1
2022-07-31T03:00:22.398Z,-26
2022-07-31T03:02:23.810Z,-26.1
2022-07-31T03:04:25.077Z,-26.2
2022-07-31T03:06:26.426Z,-26
2022-07-31T03:08:27.981Z,-26
2022-07-31T03:10:29.793Z,-26
2022-07-31T03:12:31.325Z,-26.2
2022-07-31T03:14:33.216Z,-26
2022-07-31T03:16:34.235Z,-26.1
2022-07-31T03:18:35.736Z,-26.1
2022-07-31T03:20:36.841Z,-26.5
2022-07-31T03:22:38.615Z,-25.9
2022-07-31T03:24:40.328Z,-26
2022-07-31T03:26:42.070Z,-26.1
2022-07-31T03:28:43.005Z,-26.3
2022-07-31T03:30:44.592Z,-26
2022-07-31T03:32:45.523Z,-25.9
2022-07-31T03:34:47.087Z,-26.1
2022-07-31T03:38:50.701Z,-26
2022-07-31T03:40:51.953Z,-26.1
2022-07-31T03:42:53.734Z,-26.1
2022-07-31T03:44:55.473Z,-26.1
2022-07-31T03:46:56.517Z,-26
2022-07-31T03:50:59.049Z,-26.1
2022-07-31T03:53:00.139Z,-26.3
2022-07-31T03:55:01.309Z,-25.9
2022-07-31T03:57:02.880Z,-25.9
2022-07-31T03:59:04.475Z,-26
2022-07-31T04:01:06.250Z,-26
2022-07-31T04:03:07.000Z,-26
2022-07-31T04:05:10.140Z,-26
2022-07-31T04:07:09.896Z,-26.1
2022-07-31T04:11:12.864Z,-26.1
2022-07-31T04:13:14.260Z,-25.8
2022-07-31T04:15:15.316Z,-25.9
2022-07-31T04:17:16.286Z,-25.8
2022-07-31T04:19:18.146Z,-26.2
2022-07-31T04:21:19.816Z,-26
2022-07-31T04:23:20.934Z,-26.3
2022-07-31T04:25:22.014Z,-26
2022-07-31T04:27:23.344Z,-26
2022-07-31T04:28:16.140Z,-25.7
2022-07-31T04:32:19.109Z,-26.1
2022-07-31T04:34:20.306Z,-26
2022-07-31T04:36:29.501Z,-25.9
2022-07-31T04:38:23.214Z,-26
2022-07-31T04:40:24.336Z,-26.2
2022-07-31T04:42:25.222Z,-26
2022-07-31T04:44:26.975Z,-25.9
2022-07-31T04:46:28.212Z,-26
2022-07-31T04:48:29.264Z,-26.1
2022-07-31T04:50:31.126Z,-26
2022-07-31T04:52:32.687Z,-26
2022-07-31T04:54:34.193Z,-26.1
2022-07-31T04:56:35.219Z,-26.1
2022-07-31T04:58:36.417Z,-25.9
2022-07-31T05:00:37.365Z,-26.2
2022-07-31T05:02:39.213Z,-16.29
2022-07-31T05:04:40.330Z,-19.5
2022-07-31T05:10:44.265Z,-25.9
2022-07-31T05:12:46.066Z,-26
2022-07-31T05:14:47.698Z,-26
2022-07-31T05:16:49.011Z,-26
2022-07-31T05:18:50.424Z,-25.5
2022-07-31T05:20:51.693Z,-16.79
2022-07-31T05:22:53.101Z,-11.9
2022-07-31T05:24:54.318Z,-17
2022-07-31T05:26:55.484Z,-16.9
2022-07-31T05:32:59.755Z,-12.7
2022-07-31T05:35:00.715Z,-6.7
2022-07-31T05:37:02.492Z,-9.3
2022-07-31T05:39:03.817Z,-8.2
2022-07-31T05:41:05.220Z,-2.9
2022-07-31T05:43:06.399Z,41.5
2022-07-31T05:45:07.774Z,27.9
2022-07-31T05:47:08.805Z,32.9
2022-07-31T05:49:10.645Z,38.8
2022-07-31T05:51:12.114Z,79
2022-07-31T05:53:13.052Z,77.1
2022-07-31T05:55:14.338Z,76.6
2022-07-31T05:57:33.192Z,75.19
2022-07-31T05:59:16.980Z,75
2022-07-31T06:01:18.596Z,74.5
2022-07-31T06:03:20.275Z,73.6
2022-07-31T06:05:22.039Z,72.8
2022-07-31T06:07:23.596Z,72
2022-07-31T06:09:24.491Z,71.19
2022-07-31T06:11:25.858Z,70.5
2022-07-31T06:17:29.049Z,68
2022-07-31T06:19:29.868Z,67
2022-07-31T06:21:31.329Z,65.69
2022-07-31T06:23:32.585Z,65
2022-07-31T06:25:35.043Z,60.3
2022-07-31T06:27:35.284Z,62.3
2022-07-31T06:29:40.125Z,61.1
2022-07-31T06:31:37.198Z,59.9
2022-07-31T06:35:47.209Z,56.9
2022-07-31T06:37:40.621Z,51.9
2022-07-31T06:39:54.914Z,54
2022-07-31T06:41:43.702Z,53.4
2022-07-31T06:43:44.549Z,51.2
2022-07-31T06:45:51.046Z,51
2022-07-31T06:47:46.670Z,48.7
2022-07-31T06:49:47.604Z,46.6
2022-07-31T06:51:48.962Z,45.2
2022-07-31T06:53:50.535Z,44
2022-07-31T06:55:52.312Z,38.9
2022-07-31T06:57:53.795Z,40.2
2022-07-31T06:59:54.688Z,38.8
2022-07-31T07:01:56.099Z,37.2
2022-07-31T07:05:58.785Z,34.9
2022-07-31T07:08:00.133Z,33.9
2022-07-31T07:10:01.032Z,31.4
2022-07-31T07:12:02.466Z,31.2
2022-07-31T07:14:03.288Z,29.7
2022-07-31T07:16:06.453Z,28.2
2022-07-31T07:18:06.484Z,26.5
2022-07-31T07:20:07.440Z,26.1
2022-07-31T07:22:08.551Z,25.1
2022-07-31T07:24:09.507Z,23.6
2022-07-31T07:28:15.340Z,21.8
2022-07-31T07:30:13.557Z,21.1
2022-07-31T07:32:14.320Z,20.6
2022-07-31T07:34:16.068Z,20.29
2022-07-31T07:36:22.535Z,17.7
2022-07-31T07:40:19.942Z,16.2
2022-07-31T07:42:21.475Z,14.9
2022-07-31T07:44:22.997Z,14.1
2022-07-31T07:46:23.884Z,11.4
2022-07-31T07:48:24.894Z,12.4
2022-07-31T07:50:26.831Z,9.39
2022-07-31T07:52:28.935Z,9
2022-07-31T07:54:28.195Z,7.6
2022-07-31T07:56:29.114Z,-25.9
2022-07-31T07:58:29.927Z,-25.8
2022-07-31T08:00:30.707Z,-25.8
2022-07-31T08:02:31.894Z,-25.6
2022-07-31T08:04:33.021Z,-26
2022-07-31T08:06:34.052Z,-26
2022-07-31T08:10:36.156Z,-25.8
2022-07-31T08:12:37.231Z,-26
2022-07-31T08:14:38.562Z,-25.9
2022-07-31T08:16:40.275Z,-25.7
2022-07-31T08:18:41.318Z,-25.9
2022-07-31T08:20:42.165Z,-26
2022-07-31T08:22:43.197Z,-25.9
2022-07-31T08:24:44.031Z,-25.8
2022-07-31T08:26:44.892Z,-25.9
2022-07-31T08:30:47.661Z,-26
2022-07-31T08:32:48.747Z,-25.7
2022-07-31T08:34:50.376Z,-25.7
2022-07-31T08:36:51.684Z,-25.9
2022-07-31T08:40:54.493Z,-25.9
2022-07-31T08:42:55.921Z,-25.6
2022-07-31T08:44:57.206Z,-25.8
2022-07-31T08:46:58.363Z,-25.8
2022-07-31T08:48:59.433Z,-25.4
2022-07-31T08:51:00.413Z,-25.6
2022-07-31T08:53:01.256Z,-26
2022-07-31T08:55:03.017Z,-25.7
2022-07-31T08:57:04.096Z,-25.6
2022-07-31T08:59:04.676Z,-25.5
2022-07-31T09:03:07.720Z,-25.6
2022-07-31T09:05:08.582Z,-25.9
2022-07-31T09:07:09.765Z,-26
2022-07-31T09:11:12.091Z,-25.8
2022-07-31T09:13:13.153Z,-25.6
2022-07-31T09:15:14.130Z,-25.6
2022-07-31T09:17:15.328Z,-25.9
2022-07-31T09:19:51.510Z,-25.8
2022-07-31T09:21:17.629Z,-25.7
2022-07-31T09:23:18.649Z,-25.8
2022-07-31T09:25:20.295Z,-25.7
2022-07-31T09:29:22.611Z,-25.8
2022-07-31T09:31:23.557Z,-25.8
2022-07-31T09:33:25.121Z,-25.9
2022-07-31T09:35:26.162Z,-25.8
2022-07-31T09:37:27.817Z,-25.7
2022-07-31T09:39:29.502Z,-25.9
2022-07-31T09:41:57.033Z,-25.9
2022-07-31T09:43:31.860Z,-25.8
2022-07-31T09:45:32.489Z,-25.6
2022-07-31T09:47:33.924Z,-25.8
2022-07-31T09:49:35.179Z,-25.7
2022-07-31T09:51:36.510Z,-25.9
2022-07-31T09:53:41.732Z,-25.8
2022-07-31T09:55:39.655Z,-25.9
2022-07-31T09:57:41.154Z,-25.8
2022-07-31T09:59:42.007Z,-25.9
2022-07-31T10:01:42.930Z,-25.4
2022-07-31T10:03:44.663Z,-25.9
2022-07-31T10:05:45.827Z,-25.7
2022-07-31T10:07:47.271Z,-25.9
2022-07-31T10:11:49.056Z,-25.8
2022-07-31T10:13:50.799Z,-25.6
2022-07-31T10:15:52.190Z,-26.3
2022-07-31T10:17:53.821Z,-26.1
2022-07-31T10:19:54.812Z,-26.3
2022-07-31T10:21:56.129Z,-26.5
2022-07-31T10:23:57.775Z,-26.1
2022-07-31T10:25:59.185Z,-26.1
2022-07-31T10:28:00.812Z,-26.1
2022-07-31T10:30:02.465Z,-26.1
2022-07-31T10:32:03.937Z,-26.1
2022-07-31T10:34:05.208Z,-25.9
2022-07-31T10:36:06.036Z,-26
2022-07-31T10:38:07.415Z,-26.2
2022-07-31T10:40:08.622Z,-25.9
2022-07-31T10:42:10.139Z,-26.2
2022-07-31T10:44:11.863Z,-26.2
2022-07-31T10:46:12.639Z,-26.1
2022-07-31T10:48:14.340Z,-26.2
2022-07-31T10:50:16.037Z,-26.3
2022-07-31T10:56:20.295Z,-26.3
2022-07-31T10:58:21.239Z,-26.2
2022-07-31T11:00:22.181Z,-26.1
2022-07-31T11:02:23.118Z,-26.3
2022-07-31T11:04:24.754Z,-25.9
2022-07-31T11:06:26.370Z,-26
2022-07-31T11:08:27.593Z,-26.1
2022-07-31T11:10:29.288Z,-26
2022-07-31T11:12:30.439Z,-26
2022-07-31T11:13:14.091Z,-26.2
2022-07-31T11:17:16.481Z,-26.1
2022-07-31T11:19:17.874Z,-25.8
2022-07-31T11:21:37.404Z,-25.9
2022-07-31T11:23:19.568Z,-26.2
2022-07-31T11:27:22.341Z,-26.1
2022-07-31T11:29:58.040Z,-26.2
2022-07-31T11:31:24.469Z,-26.2
2022-07-31T11:35:27.365Z,-25.8
2022-07-31T11:37:30.711Z,-26.1
2022-07-31T11:43:32.297Z,-26.2
2022-07-31T11:48:10.411Z,-26.2
2022-07-31T11:49:38.972Z,-26
2022-07-31T11:51:37.174Z,-26.3
2022-07-31T11:53:38.493Z,-26.3
2022-07-31T11:57:52.057Z,-26.5
2022-07-31T11:59:44.697Z,-25.7
2022-07-31T12:01:43.178Z,-26.2
2022-07-31T12:03:43.976Z,-26.2
2022-07-31T12:05:45.316Z,-26.3
2022-07-31T12:07:46.548Z,-26
2022-07-31T12:10:00.085Z,-26
2022-07-31T12:11:49.481Z,-26.2
2022-07-31T12:15:52.488Z,-26.1
2022-07-31T12:19:57.960Z,-26.1
2022-07-31T12:21:56.155Z,-26.1
2022-07-31T12:23:57.364Z,-26
2022-07-31T12:25:58.120Z,-25.9
2022-07-31T12:27:59.383Z,-26.3
2022-07-31T12:30:00.792Z,-25.8
2022-07-31T12:32:01.649Z,-26.4
2022-07-31T12:36:04.457Z,-26.2
2022-07-31T12:38:18.693Z,-26.1
2022-07-31T12:40:07.162Z,-26.2
2022-07-31T12:42:08.053Z,-26.1
2022-07-31T12:44:08.818Z,-25.9
2022-07-31T12:46:10.534Z,-26
2022-07-31T12:48:11.664Z,-26.1
2022-07-31T12:50:13.090Z,-26.2
2022-07-31T12:52:14.503Z,-25.9
2022-07-31T12:54:16.100Z,-25.9
2022-07-31T12:56:17.156Z,-25.9
2022-07-31T13:00:20.093Z,-25.9
2022-07-31T13:02:21.597Z,-26.1
2022-07-31T13:04:22.905Z,-26.2
2022-07-31T13:06:24.111Z,-26
2022-07-31T13:08:25.436Z,-26.4
2022-07-31T13:10:31.837Z,-26.1
2022-07-31T13:12:28.048Z,-26.3
2022-07-31T13:14:29.740Z,66
2022-07-31T13:16:31.104Z,58.4
2022-07-31T13:18:32.083Z,56.5
2022-07-31T13:20:33.597Z,55.4
2022-07-31T13:22:34.853Z,53.3
2022-07-31T13:24:35.837Z,51.5
2022-07-31T13:26:36.594Z,48.7
2022-07-31T13:28:38.150Z,47
2022-07-31T13:30:39.453Z,45
2022-07-31T13:32:40.285Z,43.3
2022-07-31T13:34:41.047Z,41.3
2022-07-31T13:38:43.527Z,37
2022-07-31T13:40:45.156Z,35.8
2022-07-31T13:42:46.168Z,34.5
2022-07-31T13:44:47.205Z,31.9
2022-07-31T13:46:48.871Z,30.4
2022-07-31T13:48:49.833Z,26.9
2022-07-31T13:50:50.949Z,26.5
2022-07-31T13:52:52.671Z,26
2022-07-31T13:54:54.222Z,23.4
2022-07-31T13:56:55.597Z,22.1
2022-07-31T13:58:56.643Z,20.5
2022-07-31T14:01:01.432Z,19.6
2022-07-31T14:03:07.024Z,18
2022-07-31T14:05:00.098Z,15.4
2022-07-31T14:07:01.475Z,17.7
2022-07-31T14:09:02.346Z,15.6
2022-07-31T14:11:03.890Z,15.7
2022-07-31T14:15:06.867Z,10.9
2022-07-31T14:17:08.130Z,10
2022-07-31T14:19:09.483Z,9
2022-07-31T14:21:10.724Z,8
2022-07-31T14:23:12.428Z,7.6
2022-07-31T14:25:13.854Z,7.9
2022-07-31T14:27:15.018Z,-26.3
2022-07-31T14:29:15.762Z,-26.1
2022-07-31T14:31:17.166Z,-26.3
2022-07-31T14:33:18.797Z,-26.2
2022-07-31T14:35:20.034Z,-26.2
2022-07-31T14:37:20.866Z,-25.9
2022-07-31T14:41:23.344Z,-26.2
2022-07-31T14:43:24.457Z,-26.2
2022-07-31T14:45:25.524Z,-26.1
2022-07-31T14:47:26.797Z,-26.4
2022-07-31T14:50:06.172Z,-26
2022-07-31T14:51:29.509Z,-26
2022-07-31T14:53:30.524Z,-26.2
2022-07-31T14:55:32.015Z,-26
2022-07-31T14:57:33.235Z,-26.3
2022-07-31T14:59:34.135Z,-26.2
2022-07-31T15:01:35.746Z,-26
2022-07-31T15:03:36.993Z,-26
2022-07-31T15:06:37.182Z,-26.1
2022-07-31T15:07:45.730Z,-26.4
2022-07-31T15:09:41.401Z,-26.1
2022-07-31T15:13:43.747Z,-26.3
2022-07-31T15:15:44.740Z,-26.3
2022-07-31T15:17:46.400Z,-26.3
2022-07-31T15:22:09.689Z,-26.1
2022-07-31T15:23:50.037Z,-26.1
2022-07-31T15:25:51.531Z,-26.3
2022-07-31T15:30:00.765Z,-26
2022-07-31T15:31:55.126Z,-25.9
2022-07-31T15:33:56.385Z,-25.9
2022-07-31T15:35:57.843Z,-26.1
2022-07-31T15:37:59.073Z,-26.3
2022-07-31T15:42:01.399Z,-26.5
2022-07-31T15:44:03.079Z,-26.1
2022-07-31T15:46:03.928Z,-26.2
2022-07-31T15:48:09.646Z,-26
2022-07-31T15:50:06.449Z,-26.1
2022-07-31T15:52:18.027Z,-25.8
2022-07-31T15:54:09.080Z,-26.2
2022-07-31T15:56:10.399Z,-26.2
2022-07-31T15:58:11.216Z,-25.8
2022-07-31T16:00:12.855Z,-25.9
2022-07-31T16:02:14.516Z,-26.2
2022-07-31T16:04:16.558Z,-26.2
2022-07-31T16:06:16.887Z,-26.3
2022-07-31T16:08:28.375Z,-26.1
2022-07-31T16:12:20.202Z,-26.1
2022-07-31T16:14:21.128Z,-26.1
2022-07-31T16:16:22.439Z,-25.8
2022-07-31T16:18:23.349Z,-26.1
2022-07-31T16:20:26.495Z,-25.8
2022-07-31T16:22:25.612Z,-25.8
2022-07-31T16:24:27.165Z,-25.9
2022-07-31T16:26:28.787Z,-25.7
2022-07-31T16:28:30.276Z,-25.8
2022-07-31T16:30:31.546Z,-25.8
2022-07-31T16:32:32.550Z,-25.7
2022-07-31T16:34:33.814Z,-26.1
2022-07-31T16:36:34.779Z,-25.8
2022-07-31T16:38:36.259Z,-25.8
2022-07-31T16:40:37.608Z,-25.8
2022-07-31T16:42:39.142Z,-26.3
2022-07-31T16:44:40.654Z,-26.3
2022-07-31T16:46:41.666Z,-26.1
2022-07-31T16:48:42.932Z,-25.9
2022-07-31T16:50:44.407Z,-26.3
2022-07-31T16:52:46.170Z,-26
2022-07-31T17:00:50.625Z,-25.9
2022-07-31T17:02:51.512Z,-26.5
2022-07-31T17:04:54.083Z,-26.2
2022-07-31T17:06:53.714Z,-26.1
2022-07-31T17:08:54.689Z,-26
2022-07-31T17:11:04.854Z,-26.3
2022-07-31T17:12:57.139Z,-26.1
2022-07-31T17:14:58.631Z,-26.1
2022-07-31T17:16:59.466Z,-26.2
2022-07-31T17:23:03.602Z,-26.2
2022-07-31T17:25:05.274Z,-25.9
2022-07-31T17:27:07.140Z,-26
2022-07-31T17:29:08.172Z,-26.4
2022-07-31T17:31:09.304Z,-26.2
2022-07-31T17:33:10.598Z,-26.2
2022-07-31T17:35:13.624Z,-26.2
2022-07-31T17:37:13.477Z,-26
2022-07-31T17:39:14.719Z,-26.1
2022-07-31T17:43:16.734Z,-26
2022-07-31T17:45:18.341Z,-26.1
2022-07-31T17:47:19.949Z,-26.4
2022-07-31T17:49:21.664Z,-26.1
2022-07-31T17:53:24.339Z,-26
2022-07-31T17:55:25.890Z,-25.9
2022-07-31T17:57:26.696Z,-26.1
2022-07-31T18:00:12.170Z,-26
2022-07-31T18:02:13.403Z,-26.2
2022-07-31T18:04:15.746Z,-26
2022-07-31T18:06:16.163Z,-26
2022-07-31T18:08:17.706Z,-26.2
2022-07-31T18:10:27.916Z,-26
2022-07-31T18:12:20.000Z,-26.1
2022-07-31T18:14:21.272Z,-25.9
2022-07-31T18:16:22.711Z,-26
2022-07-31T18:18:23.938Z,-26.2
2022-07-31T18:20:24.775Z,-26.1
2022-07-31T18:22:26.318Z,-26.1
2022-07-31T18:24:27.905Z,-26
2022-07-31T18:26:29.267Z,-26
2022-07-31T18:30:34.751Z,-25.9
2022-07-31T18:32:33.465Z,-26
2022-07-31T18:34:34.533Z,-26.2
2022-07-31T18:36:36.017Z,-26.1
2022-07-31T18:38:36.811Z,-25.8
2022-07-31T18:40:38.258Z,-26.4
2022-07-31T18:42:39.725Z,-26.1
2022-07-31T18:44:40.983Z,-26.2
2022-07-31T18:46:42.823Z,-26.3
2022-07-31T18:48:44.434Z,-26
2022-07-31T18:50:57.875Z,-26.1
2022-07-31T18:52:46.659Z,-26
2022-07-31T18:54:51.483Z,-26.3
2022-07-31T18:56:49.185Z,-26
2022-07-31T18:58:50.415Z,-26.5
2022-07-31T19:00:54.917Z,-26
2022-07-31T19:02:53.069Z,-26.1
2022-07-31T19:04:54.062Z,-26.1
2022-07-31T19:06:55.543Z,-26
2022-07-31T19:08:56.426Z,-26
2022-07-31T19:10:57.455Z,-26.1
2022-07-31T19:12:59.198Z,-25.6
2022-07-31T19:15:00.858Z,-25.5
2022-07-31T19:19:03.898Z,-26.4
2022-07-31T19:21:19.218Z,-26.3
2022-07-31T19:23:06.627Z,-26.2
2022-07-31T19:25:08.056Z,-26.3
2022-07-31T19:29:10.572Z,-26.6
2022-07-31T19:31:11.663Z,-26.2
2022-07-31T19:33:13.223Z,-26.1
2022-07-31T19:35:14.708Z,-25.9
2022-07-31T19:41:19.214Z,-26.2
2022-07-31T19:43:20.695Z,-26.2
2022-07-31T19:45:22.137Z,-26.3
2022-07-31T19:47:23.266Z,-25.6
2022-07-31T19:49:24.810Z,-26
2022-07-31T19:51:26.405Z,-26.1
2022-07-31T19:55:29.390Z,-26.2
2022-07-31T19:57:29.978Z,-25.7
2022-07-31T19:59:31.612Z,-26.2
2022-07-31T20:01:32.630Z,-26.5
2022-07-31T20:07:36.870Z,-26.3
2022-07-31T20:09:38.258Z,-26.1
2022-07-31T20:11:39.296Z,-26.4
2022-07-31T20:13:40.510Z,-26.2
2022-07-31T20:15:50.776Z,-26.2
2022-07-31T20:17:43.233Z,-26.3
2022-07-31T20:21:46.697Z,-26.3
2022-07-31T20:23:48.937Z,-26.2
2022-07-31T20:25:49.250Z,-26.2
2022-07-31T20:27:50.680Z,-26.4
2022-07-31T20:29:52.075Z,-26.4
2022-07-31T20:31:53.639Z,-26
2022-07-31T20:33:57.327Z,-26.5
2022-07-31T20:35:56.289Z,-26.2
2022-07-31T20:37:57.841Z,-26.3
2022-07-31T20:39:59.599Z,-26.1
2022-07-31T20:42:00.558Z,-26.3
2022-07-31T20:44:01.547Z,-26
2022-07-31T20:46:03.159Z,-26.2
2022-07-31T20:48:04.158Z,-26.1
2022-07-31T20:50:05.900Z,-26
2022-07-31T20:54:08.554Z,-26.2
2022-07-31T20:56:09.414Z,-26.1
2022-07-31T20:58:10.396Z,-26
2022-07-31T21:00:11.267Z,-26
2022-07-31T21:02:12.942Z,-26.1
2022-07-31T21:04:14.192Z,-26
2022-07-31T21:06:15.679Z,-26.1
2022-07-31T21:08:16.988Z,-26.3
2022-07-31T21:10:18.309Z,-26.4
2022-07-31T21:12:19.973Z,-26.2
2022-07-31T21:14:21.304Z,-26.3
2022-07-31T21:16:23.093Z,-26.2
2022-07-31T21:22:26.617Z,-26.4
2022-07-31T21:24:27.972Z,-26.2
2022-07-31T21:26:29.146Z,-26.3
2022-07-31T21:28:30.257Z,-26.5
2022-07-31T21:30:31.749Z,-26.3
2022-07-31T21:32:33.500Z,-26.4
2022-07-31T21:36:35.840Z,-26
2022-07-31T21:38:37.665Z,-26.3
2022-07-31T21:40:38.863Z,-26.2
2022-07-31T21:42:42.575Z,-26.2
2022-07-31T21:46:43.999Z,-26.2
2022-07-31T21:48:44.461Z,-26.3
2022-07-31T21:52:47.755Z,-26.1
2022-07-31T21:54:48.815Z,-26.2
2022-07-31T21:56:50.507Z,-26.1
2022-07-31T21:58:51.955Z,-26.3
2022-07-31T22:02:54.857Z,-26.2
2022-07-31T22:04:56.651Z,-26
2022-07-31T22:06:58.337Z,-26.5
2022-07-31T22:08:59.876Z,-26.3
2022-07-31T22:11:00.939Z,-26.2
2022-07-31T22:13:01.930Z,-26.4
2022-07-31T22:15:03.357Z,-26.4
2022-07-31T22:19:06.181Z,-26.1
2022-07-31T22:21:07.802Z,-26.1
2022-07-31T22:23:08.676Z,-26.2
2022-07-31T22:25:09.911Z,-26.1
2022-07-31T22:27:15.017Z,-26.3
2022-07-31T22:31:14.263Z,-26.1
2022-07-31T22:35:17.336Z,-26
2022-07-31T22:37:18.327Z,-26.4
2022-07-31T22:39:19.828Z,-26.3
2022-07-31T22:41:21.027Z,-26.3
2022-07-31T22:45:23.900Z,-26.4
2022-07-31T22:47:25.639Z,-26.2
2022-07-31T22:49:26.684Z,-26.2
2022-07-31T22:51:28.196Z,-26.2
2022-07-31T22:53:29.929Z,-26.5
2022-07-31T22:55:30.953Z,-26.1
2022-07-31T22:57:32.489Z,-26.3
2022-07-31T22:59:33.964Z,-26.6
2022-07-31T23:01:35.087Z,-26
2022-07-31T23:03:36.164Z,-26.2
2022-07-31T23:06:02.053Z,-26
2022-07-31T23:07:39.343Z,-26.3
2022-07-31T23:09:41.049Z,-26.3
2022-07-31T23:11:42.253Z,-26.2
2022-07-31T23:13:43.175Z,-26
2022-07-31T23:15:44.354Z,-26.3
2022-07-31T23:17:45.953Z,-25.9
2022-07-31T23:19:49.920Z,-26.1
2022-07-31T23:21:49.120Z,-26.6
2022-07-31T23:23:50.648Z,-26.1
2022-07-31T23:25:52.393Z,-26.4
2022-07-31T23:27:53.543Z,-26.5
2022-07-31T23:29:54.791Z,-26.2
2022-07-31T23:31:56.548Z,-26.2
2022-07-31T23:33:58.044Z,-26.2
2022-07-31T23:35:59.513Z,-26.2
2022-07-31T23:38:00.573Z,-26.2
2022-07-31T23:40:01.447Z,-26.4
2022-07-31T23:46:05.387Z,-26.5
2022-07-31T23:48:06.895Z,-26.1
2022-07-31T23:50:08.182Z,-26.1
2022-07-31T23:52:09.231Z,-26.5
2022-07-31T23:54:10.561Z,-26.2
2022-07-31T23:56:14.368Z,-26.6
